sensor_id;sensor_type;location;lat;lon;timestamp;P1;durP1;ratioP1;P2;durP2;ratioP2
65835;SDS011;52595;51.608;7.216;2023-09-12T00:01:03;8.63;;;5.50;;
65835;SDS011;52595;51.608;7.216;2023-09-12T00:03:30;11.02;;;6.70;;
65835;SDS011;52595;51.608;7.216;2023-09-12T00:05:57;8.52;;;5.47;;
65835;SDS011;52595;51.608;7.216;2023-09-12T00:08:24;9.88;;;6.05;;
65835;SDS011;52595;51.608;7.216;2023-09-12T00:11:06;8.30;;;6.15;;
65835;SDS011;52595;51.608;7.216;2023-09-12T00:13:36;9.00;;;6.35;;
65835;SDS011;52595;51.608;7.216;2023-09-12T00:16:02;9.88;;;6.47;;
65835;SDS011;52595;51.608;7.216;2023-09-12T00:18:28;9.55;;;6.68;;
65835;SDS011;52595;51.608;7.216;2023-09-12T00:20:53;10.90;;;6.53;;
65835;SDS011;52595;51.608;7.216;2023-09-12T00:23:20;9.13;;;6.43;;
65835;SDS011;52595;51.608;7.216;2023-09-12T00:25:46;9.48;;;6.95;;
65835;SDS011;52595;51.608;7.216;2023-09-12T00:28:11;12.55;;;7.38;;
65835;SDS011;52595;51.608;7.216;2023-09-12T00:30:37;9.88;;;7.07;;
65835;SDS011;52595;51.608;7.216;2023-09-12T00:33:02;10.68;;;6.97;;
65835;SDS011;52595;51.608;7.216;2023-09-12T00:35:28;11.75;;;6.97;;
65835;SDS011;52595;51.608;7.216;2023-09-12T00:37:53;11.18;;;7.35;;
65835;SDS011;52595;51.608;7.216;2023-09-12T00:40:19;9.00;;;7.15;;
65835;SDS011;52595;51.608;7.216;2023-09-12T00:42:44;10.68;;;7.57;;
65835;SDS011;52595;51.608;7.216;2023-09-12T00:45:09;10.85;;;7.28;;
65835;SDS011;52595;51.608;7.216;2023-09-12T00:47:35;10.50;;;7.45;;
65835;SDS011;52595;51.608;7.216;2023-09-12T00:50:01;12.20;;;7.35;;
65835;SDS011;52595;51.608;7.216;2023-09-12T00:52:29;10.50;;;7.20;;
65835;SDS011;52595;51.608;7.216;2023-09-12T00:54:55;10.48;;;6.93;;
65835;SDS011;52595;51.608;7.216;2023-09-12T00:57:21;9.52;;;7.20;;
65835;SDS011;52595;51.608;7.216;2023-09-12T00:59:47;11.00;;;7.45;;
65835;SDS011;52595;51.608;7.216;2023-09-12T01:02:14;13.15;;;8.13;;
65835;SDS011;52595;51.608;7.216;2023-09-12T01:04:40;10.73;;;8.43;;
65835;SDS011;52595;51.608;7.216;2023-09-12T01:07:06;12.90;;;9.18;;
65835;SDS011;52595;51.608;7.216;2023-09-12T01:09:32;12.52;;;9.07;;
65835;SDS011;52595;51.608;7.216;2023-09-12T01:11:58;16.63;;;9.85;;
65835;SDS011;52595;51.608;7.216;2023-09-12T01:14:26;13.95;;;10.00;;
65835;SDS011;52595;51.608;7.216;2023-09-12T01:16:52;19.25;;;12.15;;
65835;SDS011;52595;51.608;7.216;2023-09-12T01:19:17;19.17;;;12.25;;
65835;SDS011;52595;51.608;7.216;2023-09-12T01:27:47;20.55;;;13.90;;
65835;SDS011;52595;51.608;7.216;2023-09-12T01:30:17;20.38;;;14.10;;
65835;SDS011;52595;51.608;7.216;2023-09-12T01:32:45;19.35;;;14.10;;
65835;SDS011;52595;51.608;7.216;2023-09-12T01:35:14;23.80;;;14.27;;
65835;SDS011;52595;51.608;7.216;2023-09-12T01:37:40;19.45;;;14.18;;
65835;SDS011;52595;51.608;7.216;2023-09-12T01:40:06;19.88;;;14.48;;
65835;SDS011;52595;51.608;7.216;2023-09-12T01:42:36;22.73;;;15.00;;
65835;SDS011;52595;51.608;7.216;2023-09-12T01:45:04;23.08;;;14.60;;
65835;SDS011;52595;51.608;7.216;2023-09-12T01:47:31;21.50;;;15.30;;
65835;SDS011;52595;51.608;7.216;2023-09-12T01:49:59;21.88;;;15.77;;
65835;SDS011;52595;51.608;7.216;2023-09-12T01:52:26;24.20;;;16.17;;
65835;SDS011;52595;51.608;7.216;2023-09-12T01:54:52;24.73;;;15.57;;
65835;SDS011;52595;51.608;7.216;2023-09-12T01:57:18;26.58;;;16.08;;
65835;SDS011;52595;51.608;7.216;2023-09-12T01:59:48;25.05;;;15.70;;
65835;SDS011;52595;51.608;7.216;2023-09-12T02:02:16;20.00;;;14.55;;
65835;SDS011;52595;51.608;7.216;2023-09-12T02:07:35;22.05;;;14.88;;
65835;SDS011;52595;51.608;7.216;2023-09-12T02:10:02;23.55;;;14.75;;
65835;SDS011;52595;51.608;7.216;2023-09-12T02:12:29;24.52;;;15.45;;
65835;SDS011;52595;51.608;7.216;2023-09-12T02:14:55;22.70;;;15.32;;
65835;SDS011;52595;51.608;7.216;2023-09-12T02:17:20;20.85;;;14.90;;
65835;SDS011;52595;51.608;7.216;2023-09-12T02:19:47;19.05;;;14.10;;
65835;SDS011;52595;51.608;7.216;2023-09-12T02:22:13;20.73;;;13.95;;
65835;SDS011;52595;51.608;7.216;2023-09-12T02:24:38;22.63;;;14.48;;
65835;SDS011;52595;51.608;7.216;2023-09-12T02:27:03;21.15;;;15.20;;
65835;SDS011;52595;51.608;7.216;2023-09-12T02:29:29;24.17;;;14.18;;
65835;SDS011;52595;51.608;7.216;2023-09-12T02:31:56;23.92;;;14.90;;
65835;SDS011;52595;51.608;7.216;2023-09-12T02:34:21;22.98;;;15.57;;
65835;SDS011;52595;51.608;7.216;2023-09-12T02:36:46;25.98;;;15.63;;
65835;SDS011;52595;51.608;7.216;2023-09-12T02:39:12;24.85;;;16.00;;
65835;SDS011;52595;51.608;7.216;2023-09-12T02:41:37;27.92;;;17.20;;
65835;SDS011;52595;51.608;7.216;2023-09-12T02:44:03;31.23;;;18.67;;
65835;SDS011;52595;51.608;7.216;2023-09-12T02:46:28;31.73;;;19.50;;
65835;SDS011;52595;51.608;7.216;2023-09-12T02:48:54;30.27;;;19.60;;
65835;SDS011;52595;51.608;7.216;2023-09-12T02:51:19;32.85;;;19.65;;
65835;SDS011;52595;51.608;7.216;2023-09-12T02:53:44;39.85;;;20.30;;
65835;SDS011;52595;51.608;7.216;2023-09-12T02:56:10;30.70;;;19.20;;
65835;SDS011;52595;51.608;7.216;2023-09-12T02:58:35;37.10;;;21.48;;
65835;SDS011;52595;51.608;7.216;2023-09-12T03:01:00;35.85;;;22.23;;
65835;SDS011;52595;51.608;7.216;2023-09-12T03:03:28;34.78;;;21.45;;
65835;SDS011;52595;51.608;7.216;2023-09-12T03:06:00;41.45;;;22.65;;
65835;SDS011;52595;51.608;7.216;2023-09-12T03:08:30;34.33;;;21.10;;
65835;SDS011;52595;51.608;7.216;2023-09-12T03:10:55;44.60;;;23.48;;
65835;SDS011;52595;51.608;7.216;2023-09-12T03:13:22;44.50;;;22.55;;
65835;SDS011;52595;51.608;7.216;2023-09-12T03:15:49;37.63;;;22.05;;
65835;SDS011;52595;51.608;7.216;2023-09-12T03:18:14;43.38;;;24.75;;
65835;SDS011;52595;51.608;7.216;2023-09-12T03:20:40;37.70;;;22.55;;
65835;SDS011;52595;51.608;7.216;2023-09-12T03:23:05;40.42;;;24.17;;
65835;SDS011;52595;51.608;7.216;2023-09-12T03:25:35;52.75;;;27.00;;
65835;SDS011;52595;51.608;7.216;2023-09-12T03:28:02;53.58;;;26.70;;
65835;SDS011;52595;51.608;7.216;2023-09-12T03:30:27;53.08;;;25.92;;
65835;SDS011;52595;51.608;7.216;2023-09-12T03:32:53;50.08;;;26.60;;
65835;SDS011;52595;51.608;7.216;2023-09-12T03:35:18;49.08;;;26.45;;
65835;SDS011;52595;51.608;7.216;2023-09-12T03:37:43;47.35;;;25.67;;
65835;SDS011;52595;51.608;7.216;2023-09-12T03:40:09;53.30;;;25.58;;
65835;SDS011;52595;51.608;7.216;2023-09-12T03:42:36;52.25;;;26.23;;
65835;SDS011;52595;51.608;7.216;2023-09-12T03:45:01;51.72;;;26.23;;
65835;SDS011;52595;51.608;7.216;2023-09-12T03:47:28;50.80;;;26.10;;
65835;SDS011;52595;51.608;7.216;2023-09-12T03:49:53;54.22;;;26.02;;
65835;SDS011;52595;51.608;7.216;2023-09-12T03:52:19;52.85;;;26.90;;
65835;SDS011;52595;51.608;7.216;2023-09-12T03:54:44;57.40;;;26.80;;
65835;SDS011;52595;51.608;7.216;2023-09-12T03:57:10;48.83;;;25.98;;
65835;SDS011;52595;51.608;7.216;2023-09-12T03:59:35;47.35;;;24.48;;
65835;SDS011;52595;51.608;7.216;2023-09-12T04:02:01;50.40;;;25.48;;
65835;SDS011;52595;51.608;7.216;2023-09-12T04:04:30;53.03;;;27.13;;
65835;SDS011;52595;51.608;7.216;2023-09-12T04:06:55;53.90;;;25.08;;
65835;SDS011;52595;51.608;7.216;2023-09-12T04:09:21;54.85;;;26.20;;
65835;SDS011;52595;51.608;7.216;2023-09-12T04:11:46;61.50;;;26.17;;
65835;SDS011;52595;51.608;7.216;2023-09-12T04:14:13;51.00;;;24.75;;
65835;SDS011;52595;51.608;7.216;2023-09-12T04:16:39;49.58;;;24.88;;
65835;SDS011;52595;51.608;7.216;2023-09-12T04:19:04;48.42;;;24.80;;
65835;SDS011;52595;51.608;7.216;2023-09-12T04:21:30;49.15;;;23.77;;
65835;SDS011;52595;51.608;7.216;2023-09-12T04:23:55;48.28;;;24.15;;
65835;SDS011;52595;51.608;7.216;2023-09-12T04:26:20;45.55;;;23.40;;
65835;SDS011;52595;51.608;7.216;2023-09-12T04:28:46;46.28;;;24.15;;
65835;SDS011;52595;51.608;7.216;2023-09-12T04:31:12;51.72;;;23.70;;
65835;SDS011;52595;51.608;7.216;2023-09-12T04:33:37;49.60;;;24.10;;
65835;SDS011;52595;51.608;7.216;2023-09-12T04:36:03;45.85;;;22.63;;
65835;SDS011;52595;51.608;7.216;2023-09-12T04:38:28;48.90;;;23.95;;
65835;SDS011;52595;51.608;7.216;2023-09-12T04:40:55;43.47;;;22.17;;
65835;SDS011;52595;51.608;7.216;2023-09-12T04:43:21;47.80;;;22.40;;
65835;SDS011;52595;51.608;7.216;2023-09-12T04:45:46;40.65;;;22.67;;
65835;SDS011;52595;51.608;7.216;2023-09-12T04:48:13;48.88;;;22.88;;
65835;SDS011;52595;51.608;7.216;2023-09-12T04:50:42;45.35;;;23.95;;
65835;SDS011;52595;51.608;7.216;2023-09-12T04:53:07;46.53;;;22.73;;
65835;SDS011;52595;51.608;7.216;2023-09-12T04:55:35;50.63;;;23.50;;
65835;SDS011;52595;51.608;7.216;2023-09-12T04:58:04;56.55;;;24.40;;
65835;SDS011;52595;51.608;7.216;2023-09-12T05:00:30;49.08;;;23.85;;
65835;SDS011;52595;51.608;7.216;2023-09-12T05:02:56;50.45;;;24.90;;
65835;SDS011;52595;51.608;7.216;2023-09-12T05:05:21;52.83;;;25.10;;
65835;SDS011;52595;51.608;7.216;2023-09-12T05:07:47;53.05;;;25.15;;
65835;SDS011;52595;51.608;7.216;2023-09-12T05:10:12;54.60;;;24.83;;
65835;SDS011;52595;51.608;7.216;2023-09-12T05:12:38;53.15;;;25.17;;
65835;SDS011;52595;51.608;7.216;2023-09-12T05:15:04;55.50;;;24.95;;
65835;SDS011;52595;51.608;7.216;2023-09-12T05:17:29;51.55;;;24.23;;
65835;SDS011;52595;51.608;7.216;2023-09-12T05:19:55;51.60;;;23.50;;
65835;SDS011;52595;51.608;7.216;2023-09-12T05:22:20;47.28;;;22.92;;
65835;SDS011;52595;51.608;7.216;2023-09-12T05:24:46;51.47;;;22.63;;
65835;SDS011;52595;51.608;7.216;2023-09-12T05:27:11;51.13;;;23.02;;
65835;SDS011;52595;51.608;7.216;2023-09-12T05:29:37;45.65;;;22.48;;
65835;SDS011;52595;51.608;7.216;2023-09-12T05:32:03;51.55;;;23.92;;
65835;SDS011;52595;51.608;7.216;2023-09-12T05:34:29;44.88;;;22.13;;
65835;SDS011;52595;51.608;7.216;2023-09-12T05:36:54;48.28;;;21.17;;
65835;SDS011;52595;51.608;7.216;2023-09-12T05:39:21;45.28;;;23.58;;
65835;SDS011;52595;51.608;7.216;2023-09-12T05:41:48;50.40;;;24.35;;
65835;SDS011;52595;51.608;7.216;2023-09-12T05:44:14;47.15;;;24.23;;
65835;SDS011;52595;51.608;7.216;2023-09-12T05:46:46;51.22;;;24.45;;
65835;SDS011;52595;51.608;7.216;2023-09-12T05:49:18;48.47;;;24.45;;
65835;SDS011;52595;51.608;7.216;2023-09-12T05:51:43;47.35;;;24.58;;
65835;SDS011;52595;51.608;7.216;2023-09-12T05:54:09;62.30;;;26.20;;
65835;SDS011;52595;51.608;7.216;2023-09-12T05:56:35;66.45;;;25.65;;
65835;SDS011;52595;51.608;7.216;2023-09-12T05:59:00;61.58;;;25.17;;
65835;SDS011;52595;51.608;7.216;2023-09-12T06:01:28;59.15;;;26.13;;
65835;SDS011;52595;51.608;7.216;2023-09-12T06:03:53;57.00;;;24.23;;
65835;SDS011;52595;51.608;7.216;2023-09-12T06:06:19;40.97;;;21.73;;
65835;SDS011;52595;51.608;7.216;2023-09-12T06:08:44;52.67;;;23.10;;
65835;SDS011;52595;51.608;7.216;2023-09-12T06:11:10;52.30;;;22.90;;
65835;SDS011;52595;51.608;7.216;2023-09-12T06:13:35;45.63;;;21.35;;
65835;SDS011;52595;51.608;7.216;2023-09-12T06:16:02;57.95;;;23.65;;
65835;SDS011;52595;51.608;7.216;2023-09-12T06:18:28;48.75;;;24.15;;
65835;SDS011;52595;51.608;7.216;2023-09-12T06:20:56;52.38;;;23.63;;
65835;SDS011;52595;51.608;7.216;2023-09-12T06:23:22;50.80;;;22.70;;
65835;SDS011;52595;51.608;7.216;2023-09-12T06:25:49;53.00;;;24.15;;
65835;SDS011;52595;51.608;7.216;2023-09-12T06:28:24;50.33;;;24.25;;
65835;SDS011;52595;51.608;7.216;2023-09-12T06:30:53;49.58;;;23.63;;
65835;SDS011;52595;51.608;7.216;2023-09-12T06:33:19;52.90;;;24.08;;
65835;SDS011;52595;51.608;7.216;2023-09-12T06:35:51;52.75;;;24.13;;
65835;SDS011;52595;51.608;7.216;2023-09-12T06:38:18;45.17;;;23.08;;
65835;SDS011;52595;51.608;7.216;2023-09-12T06:40:47;41.60;;;22.80;;
65835;SDS011;52595;51.608;7.216;2023-09-12T06:43:12;41.92;;;23.08;;
65835;SDS011;52595;51.608;7.216;2023-09-12T06:45:39;41.20;;;21.40;;
65835;SDS011;52595;51.608;7.216;2023-09-12T06:48:05;34.40;;;17.65;;
65835;SDS011;52595;51.608;7.216;2023-09-12T06:50:31;42.05;;;22.42;;
65835;SDS011;52595;51.608;7.216;2023-09-12T06:52:56;51.92;;;25.08;;
65835;SDS011;52595;51.608;7.216;2023-09-12T06:55:22;57.08;;;24.88;;
65835;SDS011;52595;51.608;7.216;2023-09-12T06:57:47;62.72;;;26.98;;
65835;SDS011;52595;51.608;7.216;2023-09-12T07:00:13;55.38;;;26.55;;
65835;SDS011;52595;51.608;7.216;2023-09-12T07:02:39;62.30;;;27.52;;
65835;SDS011;52595;51.608;7.216;2023-09-12T07:05:04;61.97;;;27.13;;
65835;SDS011;52595;51.608;7.216;2023-09-12T07:07:30;69.55;;;28.90;;
65835;SDS011;52595;51.608;7.216;2023-09-12T07:09:56;68.05;;;27.88;;
65835;SDS011;52595;51.608;7.216;2023-09-12T07:12:22;57.35;;;27.00;;
65835;SDS011;52595;51.608;7.216;2023-09-12T07:14:47;78.55;;;29.73;;
65835;SDS011;52595;51.608;7.216;2023-09-12T07:17:13;77.88;;;29.58;;
65835;SDS011;52595;51.608;7.216;2023-09-12T07:19:38;69.70;;;28.60;;
65835;SDS011;52595;51.608;7.216;2023-09-12T07:22:04;62.92;;;28.45;;
65835;SDS011;52595;51.608;7.216;2023-09-12T07:24:29;62.13;;;28.30;;
65835;SDS011;52595;51.608;7.216;2023-09-12T07:26:55;68.28;;;28.58;;
65835;SDS011;52595;51.608;7.216;2023-09-12T07:29:23;67.53;;;27.20;;
65835;SDS011;52595;51.608;7.216;2023-09-12T07:31:51;70.78;;;28.20;;
65835;SDS011;52595;51.608;7.216;2023-09-12T07:34:18;90.07;;;29.00;;
65835;SDS011;52595;51.608;7.216;2023-09-12T07:36:43;71.60;;;27.52;;
65835;SDS011;52595;51.608;7.216;2023-09-12T07:39:09;65.38;;;27.50;;
65835;SDS011;52595;51.608;7.216;2023-09-12T07:41:36;68.10;;;27.00;;
65835;SDS011;52595;51.608;7.216;2023-09-12T07:44:01;69.47;;;27.77;;
65835;SDS011;52595;51.608;7.216;2023-09-12T07:46:29;89.93;;;29.48;;
65835;SDS011;52595;51.608;7.216;2023-09-12T07:48:55;81.28;;;28.05;;
65835;SDS011;52595;51.608;7.216;2023-09-12T07:51:20;75.85;;;27.65;;
65835;SDS011;52595;51.608;7.216;2023-09-12T07:53:47;68.55;;;27.35;;
65835;SDS011;52595;51.608;7.216;2023-09-12T07:56:13;63.35;;;27.77;;
65835;SDS011;52595;51.608;7.216;2023-09-12T07:58:38;73.53;;;27.85;;
65835;SDS011;52595;51.608;7.216;2023-09-12T08:01:07;82.97;;;28.23;;
65835;SDS011;52595;51.608;7.216;2023-09-12T08:03:34;62.85;;;25.25;;
65835;SDS011;52595;51.608;7.216;2023-09-12T08:06:01;57.00;;;23.80;;
65835;SDS011;52595;51.608;7.216;2023-09-12T08:08:26;44.55;;;21.65;;
65835;SDS011;52595;51.608;7.216;2023-09-12T08:10:52;37.85;;;19.13;;
65835;SDS011;52595;51.608;7.216;2023-09-12T08:13:17;43.28;;;20.52;;
65835;SDS011;52595;51.608;7.216;2023-09-12T08:15:43;47.22;;;21.17;;
65835;SDS011;52595;51.608;7.216;2023-09-12T08:18:09;44.78;;;20.70;;
65835;SDS011;52595;51.608;7.216;2023-09-12T08:20:35;45.72;;;21.02;;
65835;SDS011;52595;51.608;7.216;2023-09-12T08:23:00;56.47;;;22.95;;
65835;SDS011;52595;51.608;7.216;2023-09-12T08:25:26;53.88;;;23.38;;
65835;SDS011;52595;51.608;7.216;2023-09-12T08:27:52;51.55;;;23.08;;
65835;SDS011;52595;51.608;7.216;2023-09-12T08:30:17;45.83;;;22.48;;
65835;SDS011;52595;51.608;7.216;2023-09-12T08:32:43;40.15;;;22.20;;
65835;SDS011;52595;51.608;7.216;2023-09-12T08:35:11;36.65;;;21.33;;
65835;SDS011;52595;51.608;7.216;2023-09-12T08:37:38;33.85;;;20.00;;
65835;SDS011;52595;51.608;7.216;2023-09-12T08:40:07;42.47;;;20.42;;
65835;SDS011;52595;51.608;7.216;2023-09-12T08:42:36;34.33;;;20.38;;
65835;SDS011;52595;51.608;7.216;2023-09-12T08:45:06;30.48;;;18.42;;
65835;SDS011;52595;51.608;7.216;2023-09-12T08:47:42;26.40;;;16.70;;
65835;SDS011;52595;51.608;7.216;2023-09-12T08:50:11;26.63;;;17.10;;
65835;SDS011;52595;51.608;7.216;2023-09-12T08:52:41;22.77;;;16.52;;
65835;SDS011;52595;51.608;7.216;2023-09-12T08:55:08;24.02;;;16.38;;
65835;SDS011;52595;51.608;7.216;2023-09-12T08:57:35;25.25;;;15.65;;
65835;SDS011;52595;51.608;7.216;2023-09-12T09:00:03;23.67;;;15.45;;
65835;SDS011;52595;51.608;7.216;2023-09-12T09:02:39;27.58;;;15.23;;
65835;SDS011;52595;51.608;7.216;2023-09-12T09:05:06;22.52;;;14.98;;
65835;SDS011;52595;51.608;7.216;2023-09-12T09:07:33;20.95;;;14.18;;
65835;SDS011;52595;51.608;7.216;2023-09-12T09:10:04;18.48;;;12.70;;
65835;SDS011;52595;51.608;7.216;2023-09-12T09:12:32;15.48;;;12.23;;
65835;SDS011;52595;51.608;7.216;2023-09-12T09:14:58;15.45;;;11.75;;
65835;SDS011;52595;51.608;7.216;2023-09-12T09:17:24;14.27;;;10.80;;
65835;SDS011;52595;51.608;7.216;2023-09-12T09:19:51;14.07;;;11.25;;
65835;SDS011;52595;51.608;7.216;2023-09-12T09:22:16;17.92;;;12.95;;
65835;SDS011;52595;51.608;7.216;2023-09-12T09:24:41;15.07;;;12.15;;
65835;SDS011;52595;51.608;7.216;2023-09-12T09:27:07;17.65;;;12.40;;
65835;SDS011;52595;51.608;7.216;2023-09-12T09:29:32;15.40;;;12.55;;
65835;SDS011;52595;51.608;7.216;2023-09-12T09:32:17;17.92;;;14.48;;
65835;SDS011;52595;51.608;7.216;2023-09-12T09:34:46;20.70;;;15.48;;
65835;SDS011;52595;51.608;7.216;2023-09-12T09:37:12;18.52;;;14.35;;
65835;SDS011;52595;51.608;7.216;2023-09-12T09:39:37;19.17;;;14.15;;
65835;SDS011;52595;51.608;7.216;2023-09-12T09:42:03;18.73;;;15.40;;
65835;SDS011;52595;51.608;7.216;2023-09-12T09:44:28;16.85;;;14.35;;
65835;SDS011;52595;51.608;7.216;2023-09-12T09:47:01;17.58;;;14.75;;
65835;SDS011;52595;51.608;7.216;2023-09-12T09:49:32;17.52;;;13.07;;
65835;SDS011;52595;51.608;7.216;2023-09-12T09:51:59;17.67;;;12.75;;
65835;SDS011;52595;51.608;7.216;2023-09-12T09:54:27;15.63;;;12.65;;
65835;SDS011;52595;51.608;7.216;2023-09-12T09:56:53;14.38;;;12.10;;
65835;SDS011;52595;51.608;7.216;2023-09-12T09:59:21;14.40;;;12.90;;
65835;SDS011;52595;51.608;7.216;2023-09-12T10:01:48;14.05;;;12.57;;
65835;SDS011;52595;51.608;7.216;2023-09-12T10:04:15;13.85;;;12.43;;
65835;SDS011;52595;51.608;7.216;2023-09-12T10:06:45;13.88;;;12.07;;
65835;SDS011;52595;51.608;7.216;2023-09-12T10:09:12;14.68;;;12.23;;
65835;SDS011;52595;51.608;7.216;2023-09-12T10:11:42;13.75;;;12.35;;
65835;SDS011;52595;51.608;7.216;2023-09-12T10:14:08;15.52;;;12.90;;
65835;SDS011;52595;51.608;7.216;2023-09-12T10:16:39;14.15;;;12.60;;
65835;SDS011;52595;51.608;7.216;2023-09-12T10:19:13;13.98;;;12.57;;
65835;SDS011;52595;51.608;7.216;2023-09-12T10:22:18;14.85;;;13.35;;
65835;SDS011;52595;51.608;7.216;2023-09-12T10:24:36;14.05;;;12.57;;
65835;SDS011;52595;51.608;7.216;2023-09-12T10:27:04;13.82;;;11.98;;
65835;SDS011;52595;51.608;7.216;2023-09-12T10:29:31;13.50;;;11.60;;
65835;SDS011;52595;51.608;7.216;2023-09-12T10:31:56;13.35;;;10.70;;
65835;SDS011;52595;51.608;7.216;2023-09-12T10:34:22;12.43;;;11.13;;
65835;SDS011;52595;51.608;7.216;2023-09-12T10:36:50;11.77;;;10.23;;
65835;SDS011;52595;51.608;7.216;2023-09-12T10:39:16;11.25;;;10.00;;
65835;SDS011;52595;51.608;7.216;2023-09-12T10:41:44;11.60;;;9.45;;
65835;SDS011;52595;51.608;7.216;2023-09-12T10:44:11;10.63;;;9.52;;
65835;SDS011;52595;51.608;7.216;2023-09-12T10:46:40;10.90;;;9.55;;
65835;SDS011;52595;51.608;7.216;2023-09-12T10:49:07;10.27;;;9.15;;
65835;SDS011;52595;51.608;7.216;2023-09-12T10:51:44;10.60;;;9.00;;
65835;SDS011;52595;51.608;7.216;2023-09-12T10:54:14;10.00;;;8.90;;
65835;SDS011;52595;51.608;7.216;2023-09-12T10:56:40;10.65;;;8.70;;
65835;SDS011;52595;51.608;7.216;2023-09-12T11:01:41;10.48;;;8.82;;
65835;SDS011;52595;51.608;7.216;2023-09-12T11:06:45;9.50;;;8.10;;
65835;SDS011;52595;51.608;7.216;2023-09-12T11:11:39;9.55;;;6.88;;
65835;SDS011;52595;51.608;7.216;2023-09-12T11:14:09;9.75;;;6.90;;
65835;SDS011;52595;51.608;7.216;2023-09-12T11:16:35;8.25;;;6.40;;
65835;SDS011;52595;51.608;7.216;2023-09-12T11:21:52;7.57;;;6.38;;
65835;SDS011;52595;51.608;7.216;2023-09-12T11:24:18;6.82;;;5.63;;
65835;SDS011;52595;51.608;7.216;2023-09-12T11:26:55;7.95;;;5.43;;
65835;SDS011;52595;51.608;7.216;2023-09-12T11:29:35;7.10;;;5.15;;
65835;SDS011;52595;51.608;7.216;2023-09-12T11:32:02;8.65;;;6.07;;
65835;SDS011;52595;51.608;7.216;2023-09-12T11:34:29;7.22;;;5.97;;
65835;SDS011;52595;51.608;7.216;2023-09-12T11:36:58;6.90;;;5.22;;
65835;SDS011;52595;51.608;7.216;2023-09-12T11:39:27;6.30;;;5.40;;
65835;SDS011;52595;51.608;7.216;2023-09-12T11:41:55;7.00;;;5.30;;
65835;SDS011;52595;51.608;7.216;2023-09-12T11:44:20;7.78;;;5.18;;
65835;SDS011;52595;51.608;7.216;2023-09-12T11:46:47;6.97;;;5.13;;
65835;SDS011;52595;51.608;7.216;2023-09-12T11:49:14;7.10;;;5.20;;
65835;SDS011;52595;51.608;7.216;2023-09-12T11:51:50;7.70;;;5.40;;
65835;SDS011;52595;51.608;7.216;2023-09-12T11:54:18;6.70;;;5.20;;
65835;SDS011;52595;51.608;7.216;2023-09-12T11:56:48;7.30;;;5.43;;
65835;SDS011;52595;51.608;7.216;2023-09-12T11:59:14;6.93;;;4.97;;
65835;SDS011;52595;51.608;7.216;2023-09-12T12:01:43;7.03;;;5.13;;
65835;SDS011;52595;51.608;7.216;2023-09-12T12:04:09;7.28;;;5.20;;
65835;SDS011;52595;51.608;7.216;2023-09-12T12:06:35;5.78;;;5.00;;
65835;SDS011;52595;51.608;7.216;2023-09-12T12:09:01;6.05;;;4.80;;
65835;SDS011;52595;51.608;7.216;2023-09-12T12:11:27;8.82;;;5.03;;
65835;SDS011;52595;51.608;7.216;2023-09-12T12:13:53;6.78;;;4.38;;
65835;SDS011;52595;51.608;7.216;2023-09-12T12:16:18;6.38;;;4.10;;
65835;SDS011;52595;51.608;7.216;2023-09-12T12:18:44;6.05;;;4.15;;
65835;SDS011;52595;51.608;7.216;2023-09-12T12:21:10;5.15;;;4.20;;
65835;SDS011;52595;51.608;7.216;2023-09-12T12:23:35;5.95;;;4.35;;
65835;SDS011;52595;51.608;7.216;2023-09-12T12:26:09;5.97;;;4.40;;
65835;SDS011;52595;51.608;7.216;2023-09-12T12:28:35;5.18;;;4.30;;
65835;SDS011;52595;51.608;7.216;2023-09-12T12:31:01;5.63;;;4.20;;
65835;SDS011;52595;51.608;7.216;2023-09-12T12:33:26;5.55;;;4.45;;
65835;SDS011;52595;51.608;7.216;2023-09-12T12:36:04;4.53;;;3.67;;
65835;SDS011;52595;51.608;7.216;2023-09-12T12:38:36;5.00;;;4.13;;
65835;SDS011;52595;51.608;7.216;2023-09-12T12:41:03;6.90;;;4.03;;
65835;SDS011;52595;51.608;7.216;2023-09-12T12:43:29;4.82;;;4.32;;
65835;SDS011;52595;51.608;7.216;2023-09-12T12:45:56;5.63;;;4.15;;
65835;SDS011;52595;51.608;7.216;2023-09-12T12:48:29;5.15;;;4.38;;
65835;SDS011;52595;51.608;7.216;2023-09-12T12:50:59;5.00;;;4.40;;
65835;SDS011;52595;51.608;7.216;2023-09-12T12:53:40;6.38;;;4.50;;
65835;SDS011;52595;51.608;7.216;2023-09-12T12:56:06;8.45;;;4.57;;
65835;SDS011;52595;51.608;7.216;2023-09-12T12:58:32;5.90;;;4.55;;
65835;SDS011;52595;51.608;7.216;2023-09-12T13:01:00;6.15;;;5.10;;
65835;SDS011;52595;51.608;7.216;2023-09-12T13:03:25;5.78;;;4.30;;
65835;SDS011;52595;51.608;7.216;2023-09-12T13:05:51;6.10;;;4.93;;
65835;SDS011;52595;51.608;7.216;2023-09-12T13:08:16;7.68;;;5.38;;
65835;SDS011;52595;51.608;7.216;2023-09-12T13:10:42;6.25;;;5.10;;
65835;SDS011;52595;51.608;7.216;2023-09-12T13:13:07;6.60;;;4.65;;
65835;SDS011;52595;51.608;7.216;2023-09-12T13:15:33;6.57;;;4.28;;
65835;SDS011;52595;51.608;7.216;2023-09-12T13:17:59;6.20;;;4.97;;
65835;SDS011;52595;51.608;7.216;2023-09-12T13:20:24;5.35;;;4.43;;
65835;SDS011;52595;51.608;7.216;2023-09-12T13:22:50;6.50;;;4.40;;
65835;SDS011;52595;51.608;7.216;2023-09-12T13:25:15;7.78;;;4.22;;
65835;SDS011;52595;51.608;7.216;2023-09-12T13:27:40;5.82;;;4.07;;
65835;SDS011;52595;51.608;7.216;2023-09-12T13:30:06;7.22;;;4.90;;
65835;SDS011;52595;51.608;7.216;2023-09-12T13:32:32;6.72;;;4.80;;
65835;SDS011;52595;51.608;7.216;2023-09-12T13:34:58;5.45;;;4.82;;
65835;SDS011;52595;51.608;7.216;2023-09-12T13:37:24;6.30;;;4.50;;
65835;SDS011;52595;51.608;7.216;2023-09-12T13:39:52;6.78;;;4.45;;
65835;SDS011;52595;51.608;7.216;2023-09-12T13:42:17;5.95;;;4.78;;
65835;SDS011;52595;51.608;7.216;2023-09-12T13:44:49;6.15;;;4.47;;
65835;SDS011;52595;51.608;7.216;2023-09-12T13:47:15;8.23;;;4.97;;
65835;SDS011;52595;51.608;7.216;2023-09-12T13:49:47;7.13;;;4.75;;
65835;SDS011;52595;51.608;7.216;2023-09-12T13:52:13;6.18;;;4.55;;
65835;SDS011;52595;51.608;7.216;2023-09-12T13:54:40;7.03;;;4.68;;
65835;SDS011;52595;51.608;7.216;2023-09-12T13:57:05;5.28;;;4.10;;
65835;SDS011;52595;51.608;7.216;2023-09-12T13:59:30;5.35;;;4.43;;
65835;SDS011;52595;51.608;7.216;2023-09-12T14:01:56;5.32;;;4.63;;
65835;SDS011;52595;51.608;7.216;2023-09-12T14:04:21;7.35;;;4.50;;
65835;SDS011;52595;51.608;7.216;2023-09-12T14:06:47;5.25;;;4.00;;
65835;SDS011;52595;51.608;7.216;2023-09-12T14:09:12;6.07;;;4.38;;
65835;SDS011;52595;51.608;7.216;2023-09-12T14:11:38;6.25;;;4.20;;
65835;SDS011;52595;51.608;7.216;2023-09-12T14:14:04;5.32;;;4.22;;
65835;SDS011;52595;51.608;7.216;2023-09-12T14:16:29;6.10;;;4.40;;
65835;SDS011;52595;51.608;7.216;2023-09-12T14:18:55;5.85;;;4.85;;
65835;SDS011;52595;51.608;7.216;2023-09-12T14:21:21;5.90;;;5.03;;
65835;SDS011;52595;51.608;7.216;2023-09-12T14:23:46;5.63;;;4.90;;
65835;SDS011;52595;51.608;7.216;2023-09-12T14:26:11;7.35;;;4.80;;
65835;SDS011;52595;51.608;7.216;2023-09-12T14:28:37;8.75;;;5.38;;
65835;SDS011;52595;51.608;7.216;2023-09-12T14:31:03;6.55;;;5.05;;
65835;SDS011;52595;51.608;7.216;2023-09-12T14:33:38;8.38;;;4.97;;
65835;SDS011;52595;51.608;7.216;2023-09-12T14:36:03;7.10;;;4.97;;
65835;SDS011;52595;51.608;7.216;2023-09-12T14:38:29;7.45;;;4.95;;
65835;SDS011;52595;51.608;7.216;2023-09-12T14:40:55;7.60;;;5.40;;
65835;SDS011;52595;51.608;7.216;2023-09-12T14:43:20;6.68;;;5.28;;
65835;SDS011;52595;51.608;7.216;2023-09-12T14:45:46;7.15;;;5.38;;
65835;SDS011;52595;51.608;7.216;2023-09-12T14:48:12;6.45;;;5.13;;